createdAt,value
2018-05-08T00:00:13.502Z,83.22
2018-05-08T00:01:13.524Z,83.31
2018-05-08T00:03:13.829Z,84.17
2018-05-08T00:04:13.856Z,84.55
2018-05-08T00:05:13.877Z,84.8
2018-05-08T00:06:13.901Z,84.8
2018-05-08T00:07:13.922Z,84.8
2018-05-08T00:08:13.944Z,85.18
2018-05-08T00:09:13.968Z,84.99
2018-05-08T00:10:13.992Z,84.89
2018-05-08T00:11:28.684Z,85.38
2018-05-08T00:12:13.781Z,85.38
2018-05-08T00:13:14.061Z,84.8
2018-05-08T00:14:14.090Z,84.46
2018-05-08T00:15:14.107Z,84.17
2018-05-08T00:16:14.134Z,84.36
2018-05-08T00:17:14.153Z,83.79
2018-05-08T00:18:13.920Z,83.79
2018-05-08T00:19:14.204Z,83.98
2018-05-08T00:21:13.986Z,83.98
2018-05-08T00:22:14.270Z,83.6
2018-05-08T00:23:14.294Z,83.6
2018-05-08T00:24:14.414Z,84.17
2018-05-08T00:25:14.336Z,84.61
2018-05-08T00:26:14.100Z,84.23
2018-05-08T00:27:29.043Z,84.89
2018-05-08T00:28:14.505Z,85.18
2018-05-08T00:29:14.433Z,84.99
2018-05-08T00:30:14.454Z,84.7
2018-05-08T00:31:14.482Z,85.09
2018-05-08T00:32:14.497Z,84.7
2018-05-08T00:33:14.518Z,84.61
2018-05-08T00:35:14.566Z,85.75
2018-05-08T00:36:14.585Z,85.66
2018-05-08T00:37:14.610Z,85.57
2018-05-08T00:38:14.635Z,85.75
2018-05-08T00:39:14.397Z,85.66
2018-05-08T00:40:14.420Z,85.94
2018-05-08T00:41:14.706Z,86.23
2018-05-08T00:42:14.724Z,86.23
2018-05-08T00:43:29.413Z,85.57
2018-05-08T00:44:14.773Z,86.23
2018-05-08T00:45:14.794Z,86.04
2018-05-08T00:46:14.820Z,86.14
2018-05-08T00:47:14.839Z,86.23
2018-05-08T00:49:14.894Z,86.04
2018-05-08T00:50:14.914Z,86.14
2018-05-08T00:51:15.017Z,86.71
2018-05-08T00:53:14.976Z,86.33
2018-05-08T00:54:14.998Z,86.04
2018-05-08T00:55:15.021Z,86.23
2018-05-08T00:56:15.044Z,85.75
2018-05-08T00:57:15.070Z,86.61
2018-05-08T00:58:15.088Z,86.8
2018-05-08T00:59:29.772Z,86.04
2018-05-08T01:00:15.134Z,86.14
2018-05-08T01:02:15.281Z,86.52
2018-05-08T01:03:15.203Z,86.71
2018-05-08T01:04:15.225Z,86.71
2018-05-08T01:05:15.246Z,86.61
2018-05-08T01:06:15.013Z,86.23
2018-05-08T01:07:15.292Z,86.43
2018-05-08T01:09:15.339Z,86.86
2018-05-08T01:10:15.361Z,85.66
2018-05-08T01:11:15.385Z,86.38
2018-05-08T01:12:15.416Z,87.09
2018-05-08T01:13:15.432Z,86.57
2018-05-08T01:14:30.114Z,87.15
2018-05-08T01:15:15.478Z,87.15
2018-05-08T01:16:15.497Z,87.24
2018-05-08T01:17:15.521Z,86.67
2018-05-08T01:18:15.619Z,86.76
2018-05-08T01:19:15.568Z,86.96
2018-05-08T01:20:15.588Z,86.76
2018-05-08T01:21:15.354Z,86.67
2018-05-08T01:24:15.679Z,87.72
2018-05-08T01:25:15.704Z,88.01
2018-05-08T01:26:15.726Z,87.24
2018-05-08T01:27:15.750Z,87.05
2018-05-08T01:28:15.511Z,87.34
2018-05-08T01:29:15.793Z,87.72
2018-05-08T01:30:15.814Z,87.82
2018-05-08T01:31:15.852Z,87.91
2018-05-08T01:32:15.602Z,87.87
2018-05-08T01:33:15.886Z,87.53
2018-05-08T01:34:15.907Z,88.77
2018-05-08T01:35:15.926Z,88.44
2018-05-08T01:36:15.951Z,88.2
2018-05-08T01:37:15.975Z,87.77
2018-05-08T01:39:16.017Z,88.73
2018-05-08T01:40:16.042Z,88.34
2018-05-08T01:41:16.104Z,88.25
2018-05-08T01:42:16.084Z,88.06
2018-05-08T01:43:16.171Z,88.73
2018-05-08T01:44:16.129Z,89.01
2018-05-08T01:45:16.152Z,88.73
2018-05-08T01:46:30.835Z,88.92
2018-05-08T01:47:16.198Z,88.92
2018-05-08T01:48:16.218Z,89.11
2018-05-08T01:49:16.243Z,88.82
2018-05-08T01:50:16.261Z,88.92
2018-05-08T01:51:16.286Z,88.82
2018-05-08T01:53:16.334Z,88.82
2018-05-08T01:54:16.356Z,88.63
2018-05-08T01:55:16.381Z,88.34
2018-05-08T01:56:16.404Z,89.11
2018-05-08T01:57:16.421Z,89.11
2018-05-08T01:58:16.444Z,89.01
2018-05-08T01:59:16.474Z,88.82
2018-05-08T02:00:16.495Z,89.01
2018-05-08T02:01:16.511Z,89.01
2018-05-08T02:02:31.194Z,89.2
2018-05-08T02:03:16.298Z,89.59
2018-05-08T02:04:16.582Z,89.68
2018-05-08T02:05:16.606Z,89.87
2018-05-08T02:07:16.644Z,90.06
2018-05-08T02:08:16.667Z,90.06
2018-05-08T02:09:16.689Z,89.87
2018-05-08T02:13:16.785Z,89.87
2018-05-08T02:14:16.804Z,89.59
2018-05-08T02:15:16.823Z,89.68
2018-05-08T02:16:16.849Z,89.59
2018-05-08T02:17:16.870Z,88.92
2018-05-08T02:18:31.550Z,88.92
2018-05-08T02:19:16.656Z,89.49
2018-05-08T02:20:17.003Z,89.3
2018-05-08T02:21:16.698Z,89.97
2018-05-08T02:22:16.733Z,89.59
2018-05-08T02:23:17.007Z,89.78
2018-05-08T02:24:16.765Z,90.25
2018-05-08T02:26:16.810Z,89.64
2018-05-08T02:27:16.831Z,90.78
2018-05-08T02:29:17.135Z,91.16
2018-05-08T02:30:16.903Z,90.69
2018-05-08T02:31:17.180Z,91.45
2018-05-08T02:32:17.205Z,91.36
2018-05-08T02:33:17.225Z,91.64
2018-05-08T02:34:31.907Z,91.93
2018-05-08T02:35:17.267Z,91.64
2018-05-08T02:36:17.033Z,91.83
2018-05-08T02:37:17.316Z,91.16
2018-05-08T02:38:17.336Z,91.16
2018-05-08T02:39:17.359Z,91.64
2018-05-08T02:40:17.120Z,91.55
2018-05-08T02:41:17.406Z,91.64
2018-05-08T02:42:17.166Z,91.55
2018-05-08T02:43:17.445Z,91.55
2018-05-08T02:44:17.210Z,91.93
2018-05-08T02:45:17.332Z,91.83
2018-05-08T02:46:17.515Z,91.93
2018-05-08T02:47:17.537Z,92.31
2018-05-08T02:48:17.570Z,92.12
2018-05-08T02:49:32.239Z,92.12
2018-05-08T02:50:17.602Z,92.12
2018-05-08T02:51:17.625Z,92.88
2018-05-08T02:52:17.651Z,92.79
2018-05-08T02:53:17.672Z,93.07
2018-05-08T02:54:17.431Z,93.07
2018-05-08T02:55:17.713Z,92.6
2018-05-08T02:56:17.733Z,93.17
2018-05-08T02:58:17.779Z,93.55
2018-05-08T02:59:17.801Z,93.46
2018-05-08T03:00:17.827Z,93.55
2018-05-08T03:01:17.843Z,93.55
2018-05-08T03:02:17.864Z,92.97
2018-05-08T03:03:17.889Z,93.55
2018-05-08T03:04:17.916Z,93.98
2018-05-08T03:05:17.945Z,93.88
2018-05-08T03:06:17.695Z,93.7
2018-05-08T03:07:17.716Z,93.6
2018-05-08T03:08:17.997Z,94.27
2018-05-08T03:09:18.036Z,94.46
2018-05-08T03:10:18.047Z,93.93
2018-05-08T03:11:18.068Z,93.79
2018-05-08T03:13:17.849Z,94.17
2018-05-08T03:14:18.131Z,94.56
2018-05-08T03:15:18.151Z,94.17
2018-05-08T03:16:18.176Z,94.93
2018-05-08T03:17:18.201Z,94.74
2018-05-08T03:18:17.957Z,94.65
2018-05-08T03:19:18.241Z,94.56
2018-05-08T03:20:18.270Z,95.03
2018-05-08T03:21:32.941Z,95.7
2018-05-08T03:22:18.381Z,95.41
2018-05-08T03:23:18.325Z,95.79
2018-05-08T03:24:18.346Z,96.08
2018-05-08T03:25:18.371Z,96.27
2018-05-08T03:27:18.413Z,96.27
2018-05-08T03:28:18.438Z,96.27
2018-05-08T03:29:18.458Z,95.98
2018-05-08T03:30:18.484Z,95.7
2018-05-08T03:31:18.500Z,95.7
2018-05-08T03:32:18.522Z,95.61
2018-05-08T03:33:18.542Z,95.51
2018-05-08T03:34:18.308Z,95.61
2018-05-08T03:35:18.588Z,95.51
2018-05-08T03:36:18.611Z,95.51
2018-05-08T03:37:33.292Z,95.32
2018-05-08T03:38:18.656Z,95.61
2018-05-08T03:39:18.671Z,95.7
2018-05-08T03:40:18.705Z,95.41
2018-05-08T03:41:18.717Z,95.41
2018-05-08T03:42:18.749Z,94.93
2018-05-08T03:43:18.761Z,95.12
2018-05-08T03:44:18.784Z,95.03
2018-05-08T03:45:18.808Z,94.65
2018-05-08T03:46:18.826Z,94.79
2018-05-08T03:47:18.850Z,94.84
2018-05-08T03:48:18.871Z,94.17
2018-05-08T03:49:18.636Z,94.6
2018-05-08T03:50:18.914Z,94.41
2018-05-08T03:51:18.940Z,94.17
2018-05-08T03:52:18.964Z,94.31
2018-05-08T03:53:33.639Z,94.17
2018-05-08T03:54:19.003Z,93.93
2018-05-08T03:55:19.027Z,93.84
2018-05-08T03:56:19.046Z,94.12
2018-05-08T03:57:19.097Z,94.03
2018-05-08T03:58:19.093Z,93.55
2018-05-08T03:59:19.112Z,92.97
2018-05-08T04:00:19.137Z,93.26
2018-05-08T04:01:19.160Z,93.36
2018-05-08T04:02:19.178Z,93.26
2018-05-08T04:03:19.200Z,93.26
2018-05-08T04:04:19.221Z,92.97
2018-05-08T04:05:19.357Z,93.07
2018-05-08T04:06:19.273Z,92.79
2018-05-08T04:07:19.291Z,92.79
2018-05-08T04:08:19.493Z,92.79
2018-05-08T04:09:33.991Z,92.88
2018-05-08T04:10:19.357Z,92.6
2018-05-08T04:11:19.386Z,92.5
2018-05-08T04:12:19.398Z,92.41
2018-05-08T04:13:19.420Z,92.02
2018-05-08T04:14:19.443Z,92.5
2018-05-08T04:15:19.464Z,92.45
2018-05-08T04:16:19.231Z,92.12
2018-05-08T04:17:19.509Z,92.07
2018-05-08T04:19:19.550Z,92.26
2018-05-08T04:20:19.576Z,91.59
2018-05-08T04:21:19.596Z,91.59
2018-05-08T04:22:19.360Z,91.59
2018-05-08T04:23:19.638Z,91.4
2018-05-08T04:24:34.323Z,91.59
2018-05-08T04:25:19.698Z,91.21
2018-05-08T04:27:19.729Z,91.02
2018-05-08T04:28:19.748Z,91.3
2018-05-08T04:29:19.778Z,90.83
2018-05-08T04:30:19.800Z,91.02
2018-05-08T04:31:19.827Z,90.73
2018-05-08T04:33:19.603Z,90.54
2018-05-08T04:34:19.625Z,90.54
2018-05-08T04:35:19.906Z,90.73
2018-05-08T04:36:19.929Z,90.64
2018-05-08T04:37:19.954Z,90.25
2018-05-08T04:38:19.975Z,90.01
2018-05-08T04:39:19.997Z,90.3
2018-05-08T04:40:20.024Z,90.68
2018-05-08T04:41:20.040Z,90.11
2018-05-08T04:42:20.070Z,89.92
2018-05-08T04:43:20.084Z,89.53
2018-05-08T04:44:20.112Z,89.73
2018-05-08T04:45:20.129Z,89.82
2018-05-08T04:46:19.891Z,89.82
2018-05-08T04:47:20.186Z,89.73
2018-05-08T04:48:20.200Z,89.06
2018-05-08T04:50:20.246Z,87.66
2018-05-08T04:51:20.265Z,85.03
2018-05-08T04:52:20.290Z,81.71
2018-05-08T04:53:20.310Z,77.29
2018-05-08T04:54:20.333Z,74.01
2018-05-08T04:55:20.357Z,70.52
2018-05-08T04:56:35.040Z,67.48
2018-05-08T04:57:20.404Z,64.69
2018-05-08T04:58:20.172Z,63.34
2018-05-08T04:59:20.195Z,61.77
2018-05-08T05:00:20.484Z,60.06
2018-05-08T05:01:20.245Z,58.17
2018-05-08T05:02:20.532Z,56.48
2018-05-08T05:05:20.616Z,54.68
2018-05-08T05:06:20.640Z,53.38
2018-05-08T05:07:20.407Z,52.77
2018-05-08T05:08:20.712Z,51.93
2018-05-08T05:09:20.724Z,50.89
2018-05-08T05:10:20.490Z,50.7
2018-05-08T05:11:20.780Z,50.5
2018-05-08T05:12:35.569Z,49.73
2018-05-08T05:13:20.837Z,49.37
2018-05-08T05:14:20.866Z,49.07
2018-05-08T05:15:20.907Z,48.9
2018-05-08T05:16:20.928Z,48.71
2018-05-08T05:17:20.957Z,47.47
2018-05-08T05:18:20.986Z,47.57
2018-05-08T05:19:21.017Z,47.38
2018-05-08T05:20:21.048Z,47.47
2018-05-08T05:22:21.113Z,45.21
2018-05-08T05:23:20.882Z,45.41
2018-05-08T05:25:21.203Z,43.51
2018-05-08T05:26:21.245Z,43.34
2018-05-08T05:27:21.272Z,41.42
2018-05-08T05:28:35.961Z,42.49
2018-05-08T05:29:21.082Z,41.8
2018-05-08T05:30:21.106Z,42.11
2018-05-08T05:31:21.398Z,41.22
2018-05-08T05:32:21.428Z,41.61
2018-05-08T05:33:21.464Z,42
2018-05-08T05:34:21.495Z,41.8
2018-05-08T05:35:21.532Z,41.88
2018-05-08T05:36:21.570Z,41.42
2018-05-08T05:37:21.602Z,40.66
2018-05-08T05:38:21.630Z,41.05
2018-05-08T05:39:21.410Z,41.16
2018-05-08T05:40:21.700Z,40.01
2018-05-08T05:41:21.733Z,39.14
2018-05-08T05:42:21.762Z,39.72
2018-05-08T05:43:21.798Z,39.82
2018-05-08T05:44:36.494Z,40.88
2018-05-08T05:45:21.866Z,39.9
2018-05-08T05:47:21.937Z,39.26
2018-05-08T05:48:21.966Z,39.62
2018-05-08T05:49:22.005Z,38.85
2018-05-08T05:50:22.053Z,39.18
2018-05-08T05:51:22.071Z,39.04
2018-05-08T05:52:21.849Z,39.04
2018-05-08T05:53:21.984Z,39.53
2018-05-08T05:54:22.179Z,40.39
2018-05-08T05:55:22.215Z,41.05
2018-05-08T05:56:21.988Z,39.8
2018-05-08T05:57:22.280Z,39.62
2018-05-08T05:58:22.317Z,39.06
2018-05-08T05:59:37.013Z,39.82
2018-05-08T06:00:22.387Z,39.04
2018-05-08T06:01:22.428Z,39.53
2018-05-08T06:02:22.456Z,40
2018-05-08T06:03:22.542Z,39.43
2018-05-08T06:04:22.526Z,39.36
2018-05-08T06:06:22.678Z,38.1
2018-05-08T06:07:22.636Z,37.13
2018-05-08T06:08:22.665Z,37.93
2018-05-08T06:09:22.703Z,38.4
2018-05-08T06:10:22.739Z,38.1
2018-05-08T06:11:22.775Z,38.49
2018-05-08T06:12:22.811Z,37.45
2018-05-08T06:13:22.849Z,36.98
2018-05-08T06:14:22.888Z,36.7
2018-05-08T06:15:22.921Z,37.46
2018-05-08T06:16:22.695Z,37.43
2018-05-08T06:17:23.074Z,37.55
2018-05-08T06:18:23.027Z,37.25
2018-05-08T06:19:22.803Z,37.17
2018-05-08T06:20:23.290Z,36.86
2018-05-08T06:21:23.135Z,37.35
2018-05-08T06:22:22.912Z,36.86
2018-05-08T06:24:23.241Z,37.33
2018-05-08T06:25:23.282Z,37.35
2018-05-08T06:26:23.318Z,37.25
2018-05-08T06:27:23.352Z,36.88
2018-05-08T06:28:23.391Z,37.05
2018-05-08T06:29:23.431Z,37.13
2018-05-08T06:30:23.463Z,38.1
2018-05-08T06:31:38.162Z,39.18
2018-05-08T06:32:23.541Z,39.55
2018-05-08T06:33:23.576Z,38.01
2018-05-08T06:34:23.616Z,38.22
2018-05-08T06:35:23.713Z,38.4
2018-05-08T06:36:23.684Z,37.71
2018-05-08T06:37:23.719Z,37.15
2018-05-08T06:38:23.758Z,37.25
2018-05-08T06:39:23.810Z,36.31
2018-05-08T06:40:23.829Z,36.9
2018-05-08T06:41:23.868Z,36.39
2018-05-08T06:42:23.904Z,36.88
2018-05-08T06:43:23.943Z,36.51
2018-05-08T06:44:24.161Z,36.9
2018-05-08T06:45:24.013Z,36.19
2018-05-08T06:46:24.050Z,36.98
2018-05-08T06:47:38.750Z,35.8
2018-05-08T06:48:24.129Z,36.13
2018-05-08T06:49:24.160Z,35.8
2018-05-08T06:50:24.198Z,35.04
2018-05-08T06:51:24.238Z,35.55
2018-05-08T06:52:24.275Z,36.49
2018-05-08T06:53:24.311Z,35.92
2018-05-08T06:54:24.354Z,36.02
2018-05-08T06:56:24.449Z,35.74
2018-05-08T06:58:24.238Z,34.41
2018-05-08T06:59:24.652Z,35.19
2018-05-08T07:00:24.314Z,34.68
2018-05-08T07:01:24.628Z,34.01
2018-05-08T07:02:24.388Z,34.99
2018-05-08T07:03:39.351Z,35.09
2018-05-08T07:04:24.742Z,35.28
2018-05-08T07:05:24.774Z,35.19
2018-05-08T07:06:24.797Z,35.58
2018-05-08T07:07:24.832Z,34.89
2018-05-08T07:08:24.887Z,34.89
2018-05-08T07:09:24.922Z,35.01
2018-05-08T07:11:25.003Z,35.11
2018-05-08T07:12:25.027Z,34.52
2018-05-08T07:13:25.075Z,32.97
2018-05-08T07:14:25.113Z,33.46
2018-05-08T07:15:25.137Z,32.97
2018-05-08T07:16:25.189Z,33.45
2018-05-08T07:17:25.209Z,33.64
2018-05-08T07:18:25.244Z,34.11
2018-05-08T07:19:39.952Z,32.87
2018-05-08T07:20:25.325Z,32.68
2018-05-08T07:21:25.376Z,33.18
2018-05-08T07:22:25.409Z,32.6
2018-05-08T07:23:25.539Z,31.73
2018-05-08T07:24:25.496Z,31.35
2018-05-08T07:25:25.512Z,32.51
2018-05-08T07:26:25.574Z,33.15
2018-05-08T07:27:25.596Z,32.86
2018-05-08T07:29:25.678Z,32.27
2018-05-08T07:30:25.704Z,32.58
2018-05-08T07:31:25.754Z,32.76
2018-05-08T07:32:25.525Z,32.27
2018-05-08T07:33:25.568Z,32.68
2018-05-08T07:34:40.513Z,32.56
2018-05-08T07:35:25.630Z,32.39
2018-05-08T07:36:25.944Z,32.58
2018-05-08T07:37:25.968Z,32.78
2018-05-08T07:38:26.077Z,32.29
2018-05-08T07:39:26.048Z,31.91
2018-05-08T07:40:26.094Z,31.63
2018-05-08T07:41:26.113Z,31.74
2018-05-08T07:42:26.175Z,31.54
2018-05-08T07:43:26.194Z,31.83
2018-05-08T07:44:26.234Z,31.93
2018-05-08T07:45:26.435Z,33.26
2018-05-08T07:46:26.321Z,32.01
2018-05-08T07:47:26.087Z,32.03
2018-05-08T07:48:26.396Z,32.12
2018-05-08T07:49:26.429Z,31.34
2018-05-08T07:50:26.474Z,31.24
2018-05-08T07:51:26.492Z,32.2
2018-05-08T07:52:26.527Z,31.81
2018-05-08T07:53:26.583Z,31.63
2018-05-08T07:54:26.358Z,31.63
2018-05-08T07:55:26.660Z,31.93
2018-05-08T07:56:26.681Z,31.63
2018-05-08T07:57:26.744Z,30.96
2018-05-08T07:58:26.759Z,30.87
2018-05-08T07:59:26.538Z,30.67
2018-05-08T08:01:26.887Z,31.07
2018-05-08T08:02:26.924Z,30.32
2018-05-08T08:03:27.227Z,30.4
2018-05-08T08:04:26.774Z,30.58
2018-05-08T08:05:27.017Z,29.72
2018-05-08T08:06:41.744Z,29.14
2018-05-08T08:07:27.208Z,29.82
2018-05-08T08:09:26.909Z,29.9
2018-05-08T08:10:27.220Z,30.29
2018-05-08T08:11:27.254Z,29.24
2018-05-08T08:12:27.510Z,28.08
2018-05-08T08:13:27.318Z,28.58
2018-05-08T08:14:27.374Z,28.78
2018-05-08T08:16:27.432Z,29.44
2018-05-08T08:17:27.219Z,29.44
2018-05-08T08:18:27.580Z,29.91
2018-05-08T08:19:27.306Z,29.93
2018-05-08T08:20:27.582Z,29.24
2018-05-08T08:21:27.638Z,30.19
2018-05-08T08:22:42.320Z,30.29
2018-05-08T08:23:27.435Z,30.19
2018-05-08T08:24:27.799Z,30.3
2018-05-08T08:25:27.775Z,30.29
2018-05-08T08:26:27.561Z,30.39
2018-05-08T08:27:27.851Z,30.78
2018-05-08T08:28:27.901Z,30.88
2018-05-08T08:29:27.662Z,30.68
2018-05-08T08:30:27.713Z,29.62
2018-05-08T08:31:27.990Z,29.63
2018-05-08T08:32:27.785Z,29.44
2018-05-08T08:34:28.106Z,29.25
2018-05-08T08:35:28.155Z,29.64
2018-05-08T08:36:28.196Z,29.62
2018-05-08T08:37:27.956Z,29.53
2018-05-08T08:38:42.922Z,29.22
2018-05-08T08:39:28.290Z,28.26
2018-05-08T08:40:28.330Z,26.72
2018-05-08T08:41:28.375Z,27.32
2018-05-08T08:42:28.157Z,26.12
2018-05-08T08:43:28.456Z,25.74
2018-05-08T08:44:28.476Z,25.83
2018-05-08T08:45:28.267Z,25.92
2018-05-08T08:46:28.578Z,26.98
2018-05-08T08:47:28.607Z,25.32
2018-05-08T08:48:28.650Z,26.1
2018-05-08T08:49:28.413Z,26.28
2018-05-08T08:50:28.713Z,26.09
2018-05-08T08:51:28.734Z,26.5
2018-05-08T08:53:28.547Z,27.73
2018-05-08T08:54:43.511Z,27.81
2018-05-08T08:55:28.881Z,28.5
2018-05-08T08:56:28.935Z,27.72
2018-05-08T08:57:28.979Z,27.81
2018-05-08T08:58:28.990Z,26.45
2018-05-08T08:59:28.776Z,26.84
2018-05-08T09:00:29.061Z,26.27
2018-05-08T09:01:29.115Z,25.59
2018-05-08T09:03:29.187Z,25.59
2018-05-08T09:04:29.205Z,25.31
2018-05-08T09:05:29.260Z,25.31
2018-05-08T09:06:29.281Z,25.98
2018-05-08T09:07:29.337Z,26.26
2018-05-08T09:08:29.350Z,25.87
2018-05-08T09:09:44.055Z,24.79
2018-05-08T09:10:29.431Z,24.98
2018-05-08T09:11:29.458Z,25.18
2018-05-08T09:12:29.249Z,25.28
2018-05-08T09:13:29.536Z,25.98
2018-05-08T09:14:29.584Z,27.04
2018-05-08T09:15:29.343Z,25.96
2018-05-08T09:16:29.709Z,25.18
2018-05-08T09:17:29.673Z,25.48
2018-05-08T09:18:29.719Z,25.39
2018-05-08T09:19:29.498Z,25.39
2018-05-08T09:20:29.786Z,24.2
2018-05-08T09:21:29.815Z,24.68
2018-05-08T09:22:29.871Z,24.88
2018-05-08T09:23:29.907Z,24.01
2018-05-08T09:24:29.938Z,25.17
2018-05-08T09:25:29.697Z,26.12
2018-05-08T09:26:30.003Z,26.01
2018-05-08T09:27:29.845Z,26.51
2018-05-08T09:28:30.084Z,26.51
2018-05-08T09:29:30.095Z,26.71
2018-05-08T09:30:30.148Z,27.4
2018-05-08T09:31:30.169Z,27.69
2018-05-08T09:32:30.215Z,27.49
2018-05-08T09:33:30.352Z,27.4
2018-05-08T09:34:30.288Z,26.64
2018-05-08T09:35:30.307Z,25.77
2018-05-08T09:36:30.356Z,25.95
2018-05-08T09:37:30.377Z,25.95
2018-05-08T09:38:30.426Z,26.32
2018-05-08T09:39:30.442Z,25.82
2018-05-08T09:40:30.501Z,26.71
2018-05-08T09:41:45.179Z,26.89
2018-05-08T09:42:30.292Z,27.28
2018-05-08T09:43:30.593Z,27.47
2018-05-08T09:44:30.619Z,27.56
2018-05-08T09:45:30.667Z,28.05
2018-05-08T09:46:30.688Z,28.44
2018-05-08T09:47:30.472Z,28.43
2018-05-08T09:49:30.814Z,28.74
2018-05-08T09:50:30.822Z,27.77
2018-05-08T09:51:30.862Z,28.44
2018-05-08T09:52:30.893Z,28.36
2018-05-08T09:53:30.939Z,27.67
2018-05-08T09:54:30.710Z,28.45
2018-05-08T09:55:30.997Z,28.45
2018-05-08T09:56:31.022Z,27.2
2018-05-08T09:57:45.724Z,26.34
2018-05-08T09:58:31.094Z,26.06
2018-05-08T09:59:31.140Z,26.55
2018-05-08T10:00:31.159Z,27.21
2018-05-08T10:01:31.213Z,26.54
2018-05-08T10:02:30.966Z,27.39
2018-05-08T10:03:31.276Z,27.29
2018-05-08T10:04:31.311Z,27.67
2018-05-08T10:05:31.335Z,27.69
2018-05-08T10:06:31.428Z,27.88
2018-05-08T10:08:31.445Z,27.59
2018-05-08T10:09:31.201Z,27.88
2018-05-08T10:10:31.511Z,28.47
2018-05-08T10:11:31.528Z,28.65
2018-05-08T10:12:31.579Z,28.83
2018-05-08T10:13:46.255Z,28.54
2018-05-08T10:14:31.625Z,29.11
2018-05-08T10:15:31.677Z,29.18
2018-05-08T10:16:31.692Z,29.77
2018-05-08T10:17:31.748Z,29.47
2018-05-08T10:18:31.508Z,29.38
2018-05-08T10:19:31.796Z,29.67
2018-05-08T10:21:31.855Z,30.13
2018-05-08T10:22:31.906Z,30.6
2018-05-08T10:23:31.923Z,29.81
2018-05-08T10:24:31.973Z,29.89
2018-05-08T10:25:31.992Z,30.57
2018-05-08T10:26:32.041Z,30.75
2018-05-08T10:27:32.070Z,31.61
2018-05-08T10:28:32.101Z,31.71
2018-05-08T10:29:46.791Z,32.18
2018-05-08T10:30:31.900Z,32.84
2018-05-08T10:31:32.181Z,32.94
2018-05-08T10:32:32.245Z,32.96
2018-05-08T10:33:32.245Z,32.75
2018-05-08T10:34:32.294Z,31.98
2018-05-08T10:35:32.060Z,32.47
2018-05-08T10:36:32.365Z,32.94
2018-05-08T10:37:32.113Z,32.75
2018-05-08T10:38:32.409Z,32.94
2018-05-08T10:40:32.469Z,32.18
2018-05-08T10:41:32.515Z,32.45
2018-05-08T10:42:32.544Z,31.98
2018-05-08T10:43:32.565Z,31.7
2018-05-08T10:44:47.259Z,31.87
2018-05-08T10:45:32.624Z,32.35
2018-05-08T10:46:32.672Z,33.04
2018-05-08T10:48:32.734Z,33.62
2018-05-08T10:49:32.764Z,33.62
2018-05-08T10:50:32.778Z,34.01
2018-05-08T10:51:32.559Z,33.81
2018-05-08T10:52:32.844Z,33.12
2018-05-08T10:53:32.872Z,33.22
2018-05-08T10:54:32.921Z,32.73
2018-05-08T10:55:32.673Z,33.41
2018-05-08T10:56:32.965Z,33.02
2018-05-08T10:57:33.009Z,33.31
2018-05-08T10:58:33.027Z,34.28
2018-05-08T10:59:33.072Z,33.61
2018-05-08T11:00:33.097Z,33.7
2018-05-08T11:01:33.131Z,33.22
2018-05-08T11:02:33.153Z,33.61
2018-05-08T11:03:33.173Z,33.61
2018-05-08T11:04:33.216Z,33.31
2018-05-08T11:05:33.250Z,33.12
2018-05-08T11:06:33.262Z,33.2
2018-05-08T11:07:33.047Z,33.61
2018-05-08T11:08:33.328Z,34.09
2018-05-08T11:09:33.376Z,33.7
2018-05-08T11:11:33.430Z,33.41
2018-05-08T11:12:33.610Z,33.22
2018-05-08T11:13:33.478Z,33.8
2018-05-08T11:14:33.519Z,33.99
2018-05-08T11:15:33.533Z,33.99
2018-05-08T11:16:48.225Z,32.92
2018-05-08T11:17:33.340Z,32.84
2018-05-08T11:18:33.374Z,33.41
2018-05-08T11:19:33.389Z,34.17
2018-05-08T11:20:33.694Z,33.98
2018-05-08T11:21:33.711Z,34.46
2018-05-08T11:22:33.841Z,34.38
2018-05-08T11:24:33.549Z,34.09
2018-05-08T11:25:33.565Z,34.28
2018-05-08T11:27:33.636Z,34.38
2018-05-08T11:28:33.911Z,34.48
2018-05-08T11:29:33.955Z,34.28
2018-05-08T11:30:33.710Z,33.8
2018-05-08T11:31:33.753Z,33.69
2018-05-08T11:32:48.692Z,34.09
2018-05-08T11:33:34.076Z,34.08
2018-05-08T11:34:34.100Z,33.99
2018-05-08T11:35:34.132Z,34.66
2018-05-08T11:36:34.146Z,35.33
2018-05-08T11:37:34.175Z,35.43
2018-05-08T11:38:34.216Z,35.92
2018-05-08T11:40:34.279Z,35.61
2018-05-08T11:41:34.286Z,36.29
2018-05-08T11:42:34.335Z,36.68
2018-05-08T11:43:34.350Z,36.11
2018-05-08T11:44:34.412Z,36.21
2018-05-08T11:45:34.147Z,36.13
2018-05-08T11:46:34.451Z,36.91
2018-05-08T11:47:34.468Z,36.34
2018-05-08T11:48:49.153Z,36.34
2018-05-08T11:50:34.571Z,35.86
2018-05-08T11:51:34.599Z,35.74
2018-05-08T11:52:34.639Z,36.24
2018-05-08T11:53:34.642Z,36.93
2018-05-08T11:54:34.663Z,36.34
2018-05-08T11:55:34.710Z,35.76
2018-05-08T11:56:34.746Z,36.32
2018-05-08T11:57:34.505Z,35.74
2018-05-08T11:58:34.782Z,36.32
2018-05-08T11:59:34.838Z,36.21
2018-05-08T12:00:34.838Z,36.13
2018-05-08T12:01:34.622Z,36.32
2018-05-08T12:02:35.087Z,36.22
2018-05-08T12:04:49.619Z,37.39
2018-05-08T12:05:34.982Z,36.91
2018-05-08T12:06:35.029Z,37.3
2018-05-08T12:07:35.045Z,37.88
2018-05-08T12:08:35.086Z,38.46
2018-05-08T12:09:35.099Z,37.49
2018-05-08T12:10:34.879Z,37.1
2018-05-08T12:11:35.168Z,36.83
2018-05-08T12:12:34.938Z,37.22
2018-05-08T12:13:34.960Z,36.24
2018-05-08T12:14:35.287Z,36.05
2018-05-08T12:15:35.275Z,36.15
2018-05-08T12:16:35.300Z,36.15
2018-05-08T12:17:35.329Z,36.22
2018-05-08T12:18:35.376Z,36.61
2018-05-08T12:19:50.048Z,37.1
2018-05-08T12:20:35.438Z,38.15
2018-05-08T12:21:35.457Z,37.86
2018-05-08T12:22:35.478Z,37.2
2018-05-08T12:23:35.515Z,37.01
2018-05-08T12:24:35.531Z,37.2
2018-05-08T12:25:35.353Z,37.41
2018-05-08T12:26:35.596Z,36.05
2018-05-08T12:27:35.638Z,36.63
2018-05-08T12:28:35.654Z,37.22
2018-05-08T12:30:35.787Z,37.02
2018-05-08T12:31:35.522Z,36.83
2018-05-08T12:32:35.777Z,37.1
2018-05-08T12:33:35.533Z,37.39
2018-05-08T12:34:35.572Z,37.78
2018-05-08T12:35:35.849Z,37.98
2018-05-08T12:36:35.891Z,37.32
2018-05-08T12:37:35.902Z,37.22
2018-05-08T12:38:35.685Z,37.32
2018-05-08T12:39:35.959Z,36.83
2018-05-08T12:40:36.006Z,37.22
2018-05-08T12:41:36.025Z,37.12
2018-05-08T12:42:36.048Z,37.41
2018-05-08T12:43:35.828Z,37.24
2018-05-08T12:44:36.122Z,36.07
2018-05-08T12:45:36.139Z,36.24
2018-05-08T12:46:36.160Z,36.22
2018-05-08T12:47:36.218Z,37.01
2018-05-08T12:48:36.235Z,38.27
2018-05-08T12:49:36.248Z,36.61
2018-05-08T12:50:36.516Z,36.71
2018-05-08T12:51:50.965Z,36.13
2018-05-08T12:52:36.358Z,36.91
2018-05-08T12:53:36.110Z,36.52
2018-05-08T12:54:36.390Z,36.13
2018-05-08T12:55:36.435Z,36.15
2018-05-08T12:56:36.450Z,36.32
2018-05-08T12:57:36.240Z,37.1
2018-05-08T12:58:36.506Z,36.24
2018-05-08T12:59:36.286Z,36.22
2018-05-08T13:00:36.564Z,36.32
2018-05-08T13:01:36.594Z,35.64
2018-05-08T13:02:36.636Z,36.11
2018-05-08T13:03:36.655Z,36.02
2018-05-08T13:04:36.693Z,36.89
2018-05-08T13:05:36.807Z,36.89
2018-05-08T13:06:36.757Z,36.6
2018-05-08T13:07:51.421Z,36.4
2018-05-08T13:08:36.806Z,35.53
2018-05-08T13:09:36.822Z,35.25
2018-05-08T13:10:36.599Z,35.24
2018-05-08T13:11:36.877Z,36.3
2018-05-08T13:12:36.918Z,35.14
2018-05-08T13:14:36.978Z,36.21
2018-05-08T13:15:37.005Z,36.04
2018-05-08T13:16:37.013Z,36.22
2018-05-08T13:17:37.057Z,35.16
2018-05-08T13:18:37.076Z,34.77
2018-05-08T13:19:36.855Z,34.97
2018-05-08T13:20:37.129Z,35.55
2018-05-08T13:21:37.178Z,35.35
2018-05-08T13:22:37.186Z,34.75
2018-05-08T13:23:51.880Z,35.24
2018-05-08T13:24:37.243Z,35.53
2018-05-08T13:26:37.324Z,35.05
2018-05-08T13:27:37.340Z,35.72
2018-05-08T13:28:37.110Z,35.05
2018-05-08T13:29:37.499Z,34.66
2018-05-08T13:30:37.171Z,34.75
2018-05-08T13:31:37.184Z,35.51
2018-05-08T13:32:37.470Z,34.85
2018-05-08T13:33:37.250Z,34.46
2018-05-08T13:34:37.545Z,34.08
2018-05-08T13:35:37.555Z,34.56
2018-05-08T13:37:37.614Z,34.75
2018-05-08T13:38:37.655Z,34.75
2018-05-08T13:39:52.333Z,34.95
2018-05-08T13:40:37.701Z,34.56
2018-05-08T13:41:37.745Z,34.66
2018-05-08T13:42:37.756Z,34.56
2018-05-08T13:43:37.782Z,34.56
2018-05-08T13:44:37.811Z,34.66
2018-05-08T13:45:37.854Z,35.33
2018-05-08T13:46:37.885Z,34.93
2018-05-08T13:47:37.903Z,35.14
2018-05-08T13:48:37.923Z,34.17
2018-05-08T13:49:37.950Z,34.87
2018-05-08T13:50:37.996Z,34.19
2018-05-08T13:51:38.010Z,34.85